sensor_id;sensor_type;location;lat;lon;timestamp;pressure;altitude;pressure_sealevel;temperature;humidity
57990;BME280;58373;51.824;5.564;2022-08-25T00:00:10;101591.22;;;22.24;71.85
57990;BME280;58373;51.824;5.564;2022-08-25T00:02:35;101583.84;;;22.35;71.48
57990;BME280;58373;51.824;5.564;2022-08-25T00:05:02;101583.84;;;22.35;70.84
57990;BME280;58373;51.824;5.564;2022-08-25T00:07:28;101581.31;;;22.26;71.14
57990;BME280;58373;51.824;5.564;2022-08-25T00:09:53;101577.56;;;22.36;70.61
57990;BME280;58373;51.824;5.564;2022-08-25T00:12:19;101584.59;;;22.29;70.83
57990;BME280;58373;51.824;5.564;2022-08-25T00:14:45;101573.13;;;22.21;71.07
57990;BME280;58373;51.824;5.564;2022-08-25T00:17:10;101579.13;;;22.15;71.22
57990;BME280;58373;51.824;5.564;2022-08-25T00:19:36;101579.50;;;22.12;71.00
57990;BME280;58373;51.824;5.564;2022-08-25T00:22:03;101586.69;;;22.18;70.91
57990;BME280;58373;51.824;5.564;2022-08-25T00:24:29;101576.22;;;22.10;71.24
57990;BME280;58373;51.824;5.564;2022-08-25T00:26:56;101578.66;;;22.12;71.36
57990;BME280;58373;51.824;5.564;2022-08-25T00:29:23;101582.78;;;22.14;71.21
57990;BME280;58373;51.824;5.564;2022-08-25T00:31:50;101587.09;;;22.07;71.15
57990;BME280;58373;51.824;5.564;2022-08-25T00:34:21;101582.19;;;22.04;71.76
57990;BME280;58373;51.824;5.564;2022-08-25T00:36:47;101591.75;;;22.05;71.16
57990;BME280;58373;51.824;5.564;2022-08-25T00:39:16;101584.66;;;22.06;70.69
57990;BME280;58373;51.824;5.564;2022-08-25T00:41:42;101573.19;;;21.98;70.72
57990;BME280;58373;51.824;5.564;2022-08-25T00:44:10;101579.91;;;22.01;70.24
57990;BME280;58373;51.824;5.564;2022-08-25T00:46:40;101581.31;;;22.26;69.31
57990;BME280;58373;51.824;5.564;2022-08-25T00:49:15;101577.94;;;22.03;69.98
57990;BME280;58373;51.824;5.564;2022-08-25T00:54:22;101576.00;;;21.97;69.84
57990;BME280;58373;51.824;5.564;2022-08-25T00:56:50;101581.00;;;21.92;70.01
57990;BME280;58373;51.824;5.564;2022-08-25T00:59:18;101582.38;;;21.88;70.38
57990;BME280;58373;51.824;5.564;2022-08-25T01:01:44;101582.84;;;21.91;69.68
57990;BME280;58373;51.824;5.564;2022-08-25T01:04:09;101582.38;;;21.88;69.92
57990;BME280;58373;51.824;5.564;2022-08-25T01:06:36;101587.38;;;21.68;71.17
57990;BME280;58373;51.824;5.564;2022-08-25T01:09:04;101571.41;;;21.61;70.89
57990;BME280;58373;51.824;5.564;2022-08-25T01:11:32;101583.44;;;21.79;70.43
57990;BME280;58373;51.824;5.564;2022-08-25T01:14:00;101575.25;;;21.73;70.07
57990;BME280;58373;51.824;5.564;2022-08-25T01:16:28;101573.06;;;21.62;70.59
57990;BME280;58373;51.824;5.564;2022-08-25T01:18:56;101572.41;;;21.60;70.99
57990;BME280;58373;51.824;5.564;2022-08-25T01:21:25;101574.47;;;21.50;71.11
57990;BME280;58373;51.824;5.564;2022-08-25T01:23:50;101576.47;;;21.48;71.07
57990;BME280;58373;51.824;5.564;2022-08-25T01:26:20;101581.03;;;21.54;71.30
57990;BME280;58373;51.824;5.564;2022-08-25T01:28:47;101570.47;;;21.54;70.50
57990;BME280;58373;51.824;5.564;2022-08-25T01:31:33;101579.22;;;21.55;70.79
57990;BME280;58373;51.824;5.564;2022-08-25T01:33:59;101583.38;;;21.49;71.27
57990;BME280;58373;51.824;5.564;2022-08-25T01:36:27;101584.59;;;21.46;70.92
57990;BME280;58373;51.824;5.564;2022-08-25T01:38:53;101582.47;;;21.42;70.76
57990;BME280;58373;51.824;5.564;2022-08-25T01:43:53;101581.88;;;21.32;71.18
57990;BME280;58373;51.824;5.564;2022-08-25T01:46:20;101576.28;;;21.35;70.80
57990;BME280;58373;51.824;5.564;2022-08-25T01:48:46;101579.91;;;21.34;71.17
57990;BME280;58373;51.824;5.564;2022-08-25T01:51:14;101579.25;;;21.32;71.57
57990;BME280;58373;51.824;5.564;2022-08-25T01:53:39;101576.72;;;21.38;71.04
57990;BME280;58373;51.824;5.564;2022-08-25T01:56:15;101577.28;;;21.34;71.20
57990;BME280;58373;51.824;5.564;2022-08-25T01:58:44;101578.47;;;21.23;71.30
57990;BME280;58373;51.824;5.564;2022-08-25T02:01:16;101575.84;;;21.23;70.99
57990;BME280;58373;51.824;5.564;2022-08-25T02:03:45;101569.78;;;21.14;71.14
57990;BME280;58373;51.824;5.564;2022-08-25T02:06:12;101576.69;;;21.15;70.77
57990;BME280;58373;51.824;5.564;2022-08-25T02:08:39;101582.97;;;21.14;70.90
57990;BME280;58373;51.824;5.564;2022-08-25T02:11:04;101580.75;;;21.03;71.13
57990;BME280;58373;51.824;5.564;2022-08-25T02:13:30;101580.00;;;21.17;70.58
57990;BME280;58373;51.824;5.564;2022-08-25T02:15:56;101580.34;;;21.14;70.02
57990;BME280;58373;51.824;5.564;2022-08-25T02:18:23;101576.41;;;21.10;70.22
57990;BME280;58373;51.824;5.564;2022-08-25T02:20:49;101582.38;;;21.04;70.17
57990;BME280;58373;51.824;5.564;2022-08-25T02:23:15;101579.19;;;20.94;69.71
57990;BME280;58373;51.824;5.564;2022-08-25T02:25:41;101577.19;;;20.96;69.73
57990;BME280;58373;51.824;5.564;2022-08-25T02:28:08;101572.19;;;21.01;68.86
57990;BME280;58373;51.824;5.564;2022-08-25T02:30:35;101578.81;;;20.97;68.84
57990;BME280;58373;51.824;5.564;2022-08-25T02:33:01;101567.66;;;20.87;68.95
57990;BME280;58373;51.824;5.564;2022-08-25T02:35:26;101566.28;;;20.99;68.32
57990;BME280;58373;51.824;5.564;2022-08-25T02:37:52;101565.69;;;20.89;67.43
57990;BME280;58373;51.824;5.564;2022-08-25T02:40:18;101562.16;;;20.97;67.29
57990;BME280;58373;51.824;5.564;2022-08-25T02:42:46;101561.13;;;20.83;66.85
57990;BME280;58373;51.824;5.564;2022-08-25T02:45:11;101555.84;;;20.83;66.89
57990;BME280;58373;51.824;5.564;2022-08-25T02:47:36;101567.66;;;20.87;65.79
57990;BME280;58373;51.824;5.564;2022-08-25T02:50:05;101567.41;;;20.82;65.89
57990;BME280;58373;51.824;5.564;2022-08-25T02:52:31;101548.63;;;20.77;64.57
57990;BME280;58373;51.824;5.564;2022-08-25T02:54:56;101563.25;;;20.87;64.85
57990;BME280;58373;51.824;5.564;2022-08-25T02:57:22;101554.06;;;20.75;64.53
57990;BME280;58373;51.824;5.564;2022-08-25T02:59:47;101557.69;;;20.74;64.33
57990;BME280;58373;51.824;5.564;2022-08-25T03:02:14;101559.81;;;20.79;63.15
57990;BME280;58373;51.824;5.564;2022-08-25T03:04:41;101556.88;;;20.74;63.38
57990;BME280;58373;51.824;5.564;2022-08-25T03:07:06;101545.84;;;20.70;63.59
57990;BME280;58373;51.824;5.564;2022-08-25T03:09:32;101549.28;;;20.79;62.66
57990;BME280;58373;51.824;5.564;2022-08-25T03:11:57;101538.59;;;20.72;62.84
57990;BME280;58373;51.824;5.564;2022-08-25T03:14:22;101539.75;;;20.69;62.39
57990;BME280;58373;51.824;5.564;2022-08-25T03:16:48;101536.78;;;20.73;62.52
57990;BME280;58373;51.824;5.564;2022-08-25T03:19:13;101541.06;;;20.74;62.51
57990;BME280;58373;51.824;5.564;2022-08-25T03:21:39;101535.78;;;20.74;62.23
57990;BME280;58373;51.824;5.564;2022-08-25T03:24:05;101537.78;;;20.72;62.21
57990;BME280;58373;51.824;5.564;2022-08-25T03:26:31;101535.19;;;20.63;62.27
57990;BME280;58373;51.824;5.564;2022-08-25T03:29:15;101522.66;;;20.65;62.44
57990;BME280;58373;51.824;5.564;2022-08-25T03:31:41;101524.19;;;20.60;61.89
57990;BME280;58373;51.824;5.564;2022-08-25T03:34:09;101521.69;;;20.58;61.85
57990;BME280;58373;51.824;5.564;2022-08-25T03:36:35;101518.78;;;20.53;61.90
57990;BME280;58373;51.824;5.564;2022-08-25T03:39:01;101520.06;;;20.57;62.12
57990;BME280;58373;51.824;5.564;2022-08-25T03:41:28;101517.50;;;20.49;62.57
57990;BME280;58373;51.824;5.564;2022-08-25T03:43:54;101524.25;;;20.43;62.20
57990;BME280;58373;51.824;5.564;2022-08-25T03:46:25;101513.38;;;20.47;62.59
57990;BME280;58373;51.824;5.564;2022-08-25T03:48:52;101520.47;;;20.38;62.44
57990;BME280;58373;51.824;5.564;2022-08-25T03:51:33;101519.84;;;20.36;62.38
57990;BME280;58373;51.824;5.564;2022-08-25T03:53:59;101520.81;;;20.35;60.95
57990;BME280;58373;51.824;5.564;2022-08-25T03:56:25;101507.63;;;20.35;61.58
57990;BME280;58373;51.824;5.564;2022-08-25T03:58:52;101505.38;;;20.32;61.81
57990;BME280;58373;51.824;5.564;2022-08-25T04:01:18;101501.09;;;20.31;61.87
57990;BME280;58373;51.824;5.564;2022-08-25T04:03:43;101502.75;;;20.24;61.89
57990;BME280;58373;51.824;5.564;2022-08-25T04:06:09;101510.38;;;20.19;62.07
57990;BME280;58373;51.824;5.564;2022-08-25T04:08:35;101513.38;;;20.07;62.74
57990;BME280;58373;51.824;5.564;2022-08-25T04:11:27;101512.31;;;20.25;62.63
57990;BME280;58373;51.824;5.564;2022-08-25T04:13:55;101502.34;;;20.04;62.86
57990;BME280;58373;51.824;5.564;2022-08-25T04:16:27;101500.22;;;19.99;63.05
57990;BME280;58373;51.824;5.564;2022-08-25T04:18:55;101497.97;;;19.88;62.72
57990;BME280;58373;51.824;5.564;2022-08-25T04:21:21;101492.56;;;19.81;62.62
57990;BME280;58373;51.824;5.564;2022-08-25T04:23:48;101481.53;;;19.78;62.54
57990;BME280;58373;51.824;5.564;2022-08-25T04:26:17;101484.03;;;19.79;62.46
57990;BME280;58373;51.824;5.564;2022-08-25T04:28:44;101478.63;;;19.73;61.89
57990;BME280;58373;51.824;5.564;2022-08-25T04:31:10;101485.97;;;19.77;61.96
57990;BME280;58373;51.824;5.564;2022-08-25T04:33:37;101488.78;;;19.76;62.26
57990;BME280;58373;51.824;5.564;2022-08-25T04:36:06;101492.88;;;19.86;61.71
57990;BME280;58373;51.824;5.564;2022-08-25T04:38:33;101491.47;;;19.68;62.35
57990;BME280;58373;51.824;5.564;2022-08-25T04:41:01;101496.50;;;19.77;61.69
57990;BME280;58373;51.824;5.564;2022-08-25T04:43:29;101490.63;;;19.67;61.99
57990;BME280;58373;51.824;5.564;2022-08-25T04:45:55;101496.03;;;19.74;61.63
57990;BME280;58373;51.824;5.564;2022-08-25T04:48:21;101494.72;;;19.70;62.02
57990;BME280;58373;51.824;5.564;2022-08-25T04:50:47;101493.91;;;19.69;62.26
57990;BME280;58373;51.824;5.564;2022-08-25T04:53:12;101494.09;;;19.59;62.36
57990;BME280;58373;51.824;5.564;2022-08-25T04:55:46;101491.91;;;19.55;62.56
57990;BME280;58373;51.824;5.564;2022-08-25T04:58:12;101492.75;;;19.55;61.67
57990;BME280;58373;51.824;5.564;2022-08-25T05:00:39;101499.84;;;19.47;62.45
57990;BME280;58373;51.824;5.564;2022-08-25T05:03:05;101489.81;;;19.50;62.70
57990;BME280;58373;51.824;5.564;2022-08-25T05:05:31;101492.13;;;19.45;62.63
57990;BME280;58373;51.824;5.564;2022-08-25T05:07:59;101491.63;;;19.42;62.18
57990;BME280;58373;51.824;5.564;2022-08-25T05:10:24;101496.03;;;19.49;62.40
57990;BME280;58373;51.824;5.564;2022-08-25T05:12:50;101495.09;;;19.50;61.63
57990;BME280;58373;51.824;5.564;2022-08-25T05:15:15;101491.09;;;19.54;61.38
57990;BME280;58373;51.824;5.564;2022-08-25T05:18:00;101508.88;;;19.52;61.02
57990;BME280;58373;51.824;5.564;2022-08-25T05:20:25;101508.53;;;19.55;61.90
57990;BME280;58373;51.824;5.564;2022-08-25T05:22:51;101506.06;;;19.54;62.44
57990;BME280;58373;51.824;5.564;2022-08-25T05:25:16;101506.56;;;19.57;62.08
57990;BME280;58373;51.824;5.564;2022-08-25T05:27:41;101513.19;;;19.61;62.30
57990;BME280;58373;51.824;5.564;2022-08-25T05:30:09;101513.81;;;19.63;62.13
57990;BME280;58373;51.824;5.564;2022-08-25T05:32:35;101513.50;;;19.58;62.97
57990;BME280;58373;51.824;5.564;2022-08-25T05:35:01;101520.09;;;19.62;62.43
57990;BME280;58373;51.824;5.564;2022-08-25T05:37:26;101523.03;;;19.68;62.90
57990;BME280;58373;51.824;5.564;2022-08-25T05:39:52;101512.16;;;19.79;62.30
57990;BME280;58373;51.824;5.564;2022-08-25T05:42:17;101526.59;;;19.83;62.53
57990;BME280;58373;51.824;5.564;2022-08-25T05:44:43;101519.34;;;19.93;61.75
57990;BME280;58373;51.824;5.564;2022-08-25T05:47:08;101516.06;;;19.83;62.89
57990;BME280;58373;51.824;5.564;2022-08-25T05:49:34;101519.31;;;20.01;62.16
57990;BME280;58373;51.824;5.564;2022-08-25T05:51:59;101524.38;;;20.11;62.15
57990;BME280;58373;51.824;5.564;2022-08-25T05:54:24;101523.69;;;20.17;62.23
57990;BME280;58373;51.824;5.564;2022-08-25T05:56:50;101531.41;;;20.27;62.00
57990;BME280;58373;51.824;5.564;2022-08-25T05:59:15;101522.69;;;20.26;61.64
57990;BME280;58373;51.824;5.564;2022-08-25T06:01:41;101522.13;;;20.39;61.76
57990;BME280;58373;51.824;5.564;2022-08-25T06:04:25;101531.31;;;20.51;60.97
57990;BME280;58373;51.824;5.564;2022-08-25T06:06:51;101528.97;;;20.56;60.87
57990;BME280;58373;51.824;5.564;2022-08-25T06:09:19;101526.31;;;20.64;60.22
57990;BME280;58373;51.824;5.564;2022-08-25T06:11:46;101521.59;;;20.75;60.17
57990;BME280;58373;51.824;5.564;2022-08-25T06:14:12;101526.19;;;20.81;59.67
57990;BME280;58373;51.824;5.564;2022-08-25T06:16:38;101534.88;;;20.89;59.47
57990;BME280;58373;51.824;5.564;2022-08-25T06:19:05;101532.97;;;20.98;58.81
57990;BME280;58373;51.824;5.564;2022-08-25T06:21:31;101533.28;;;21.03;58.73
57990;BME280;58373;51.824;5.564;2022-08-25T06:23:57;101527.94;;;21.11;57.97
57990;BME280;58373;51.824;5.564;2022-08-25T06:26:22;101524.75;;;21.16;57.70
57990;BME280;58373;51.824;5.564;2022-08-25T06:28:49;101531.81;;;21.24;57.83
57990;BME280;58373;51.824;5.564;2022-08-25T06:31:15;101534.38;;;21.32;57.67
57990;BME280;58373;51.824;5.564;2022-08-25T06:33:41;101526.13;;;21.35;56.67
57990;BME280;58373;51.824;5.564;2022-08-25T06:36:07;101531.31;;;21.43;56.93
57990;BME280;58373;51.824;5.564;2022-08-25T06:38:32;101523.97;;;21.53;56.04
57990;BME280;58373;51.824;5.564;2022-08-25T06:41:03;101529.16;;;21.61;56.11
57990;BME280;58373;51.824;5.564;2022-08-25T06:43:30;101535.81;;;21.72;55.87
57990;BME280;58373;51.824;5.564;2022-08-25T06:45:57;101533.09;;;21.80;55.67
57990;BME280;58373;51.824;5.564;2022-08-25T06:48:23;101534.84;;;21.88;55.68
57990;BME280;58373;51.824;5.564;2022-08-25T06:50:48;101522.53;;;21.95;54.99
57990;BME280;58373;51.824;5.564;2022-08-25T06:53:13;101531.00;;;22.05;55.01
57990;BME280;58373;51.824;5.564;2022-08-25T06:55:39;101526.47;;;22.14;55.45
57990;BME280;58373;51.824;5.564;2022-08-25T06:58:06;101523.91;;;22.20;55.25
57990;BME280;58373;51.824;5.564;2022-08-25T07:00:32;101528.06;;;22.30;55.36
57990;BME280;58373;51.824;5.564;2022-08-25T07:02:58;101528.34;;;22.35;54.21
57990;BME280;58373;51.824;5.564;2022-08-25T07:05:25;101527.88;;;22.46;54.06
57990;BME280;58373;51.824;5.564;2022-08-25T07:07:51;101514.28;;;22.49;54.30
57990;BME280;58373;51.824;5.564;2022-08-25T07:10:16;101527.63;;;22.62;54.23
57990;BME280;58373;51.824;5.564;2022-08-25T07:12:42;101523.22;;;22.69;53.23
57990;BME280;58373;51.824;5.564;2022-08-25T07:15:07;101520.84;;;22.74;53.71
57990;BME280;58373;51.824;5.564;2022-08-25T07:17:33;101525.03;;;22.84;52.67
57990;BME280;58373;51.824;5.564;2022-08-25T07:19:58;101529.91;;;22.87;52.95
57990;BME280;58373;51.824;5.564;2022-08-25T07:22:24;101528.44;;;22.99;53.16
57990;BME280;58373;51.824;5.564;2022-08-25T07:24:49;101522.38;;;23.05;52.73
57990;BME280;58373;51.824;5.564;2022-08-25T07:27:14;101528.41;;;23.20;52.66
57990;BME280;58373;51.824;5.564;2022-08-25T07:29:40;101532.34;;;23.24;51.94
57990;BME280;58373;51.824;5.564;2022-08-25T07:32:05;101520.97;;;23.30;51.64
57990;BME280;58373;51.824;5.564;2022-08-25T07:34:31;101524.28;;;23.39;51.60
57990;BME280;58373;51.824;5.564;2022-08-25T07:37:15;101518.22;;;23.45;51.17
57990;BME280;58373;51.824;5.564;2022-08-25T07:39:40;101521.19;;;23.57;51.00
57990;BME280;58373;51.824;5.564;2022-08-25T07:42:06;101527.34;;;23.64;51.33
57990;BME280;58373;51.824;5.564;2022-08-25T07:44:32;101518.00;;;23.68;50.96
57990;BME280;58373;51.824;5.564;2022-08-25T07:46:58;101530.69;;;23.79;50.71
57990;BME280;58373;51.824;5.564;2022-08-25T07:49:25;101516.88;;;23.84;50.42
57990;BME280;58373;51.824;5.564;2022-08-25T07:51:52;101515.72;;;24.00;50.51
57990;BME280;58373;51.824;5.564;2022-08-25T07:54:18;101522.69;;;24.07;50.41
57990;BME280;58373;51.824;5.564;2022-08-25T07:56:43;101519.44;;;24.12;49.97
57990;BME280;58373;51.824;5.564;2022-08-25T07:59:09;101528.91;;;24.28;49.31
57990;BME280;58373;51.824;5.564;2022-08-25T08:01:35;101536.25;;;24.32;49.04
57990;BME280;58373;51.824;5.564;2022-08-25T08:04:01;101523.28;;;24.44;49.32
57990;BME280;58373;51.824;5.564;2022-08-25T08:06:26;101528.59;;;24.51;49.84
57990;BME280;58373;51.824;5.564;2022-08-25T08:08:52;101513.50;;;24.58;50.06
57990;BME280;58373;51.824;5.564;2022-08-25T08:11:27;101519.25;;;24.61;49.63
57990;BME280;58373;51.824;5.564;2022-08-25T08:13:54;101510.25;;;24.69;50.00
57990;BME280;58373;51.824;5.564;2022-08-25T08:16:22;101515.19;;;24.85;49.64
57990;BME280;58373;51.824;5.564;2022-08-25T08:18:48;101507.41;;;24.77;48.76
57990;BME280;58373;51.824;5.564;2022-08-25T08:21:26;101506.63;;;24.83;49.20
57990;BME280;58373;51.824;5.564;2022-08-25T08:23:53;101506.63;;;24.97;49.49
57990;BME280;58373;51.824;5.564;2022-08-25T08:26:19;101500.53;;;25.09;48.82
57990;BME280;58373;51.824;5.564;2022-08-25T08:28:45;101500.53;;;25.09;48.40
57990;BME280;58373;51.824;5.564;2022-08-25T08:31:10;101507.28;;;25.19;47.54
57990;BME280;58373;51.824;5.564;2022-08-25T08:33:36;101501.75;;;25.20;48.88
57990;BME280;58373;51.824;5.564;2022-08-25T08:36:08;101503.78;;;25.31;48.86
57990;BME280;58373;51.824;5.564;2022-08-25T08:38:35;101495.00;;;25.37;49.79
57990;BME280;58373;51.824;5.564;2022-08-25T08:41:33;101501.72;;;25.47;49.24
57990;BME280;58373;51.824;5.564;2022-08-25T08:44:30;101488.25;;;25.41;47.81
57990;BME280;58373;51.824;5.564;2022-08-25T08:52:49;101486.56;;;25.60;48.46
57990;BME280;58373;51.824;5.564;2022-08-25T08:55:41;101493.06;;;25.84;47.89
57990;BME280;58373;51.824;5.564;2022-08-25T09:00:59;101487.28;;;26.01;46.86
57990;BME280;58373;51.824;5.564;2022-08-25T09:04:12;101491.75;;;26.07;47.80
57990;BME280;58373;51.824;5.564;2022-08-25T09:06:43;101495.41;;;26.12;45.89
57990;BME280;58373;51.824;5.564;2022-08-25T09:09:12;101491.09;;;26.18;46.16
57990;BME280;58373;51.824;5.564;2022-08-25T09:12:00;101493.28;;;26.28;47.08
57990;BME280;58373;51.824;5.564;2022-08-25T09:29:10;101495.53;;;26.94;45.65
57990;BME280;58373;51.824;5.564;2022-08-25T09:31:39;101503.41;;;27.14;45.33
57990;BME280;58373;51.824;5.564;2022-08-25T09:34:10;101505.41;;;27.18;45.26
57990;BME280;58373;51.824;5.564;2022-08-25T09:36:36;101502.38;;;27.33;43.26
57990;BME280;58373;51.824;5.564;2022-08-25T09:39:03;101489.97;;;27.45;42.82
57990;BME280;58373;51.824;5.564;2022-08-25T09:41:56;101485.38;;;27.52;42.90
57990;BME280;58373;51.824;5.564;2022-08-25T09:44:37;101475.47;;;27.60;42.39
57990;BME280;58373;51.824;5.564;2022-08-25T09:49:37;101481.97;;;27.64;41.42
57990;BME280;58373;51.824;5.564;2022-08-25T09:54:43;101469.84;;;27.86;42.06
57990;BME280;58373;51.824;5.564;2022-08-25T09:57:30;101478.72;;;27.98;41.98
57990;BME280;58373;51.824;5.564;2022-08-25T10:00:18;101474.75;;;28.19;41.72
57990;BME280;58373;51.824;5.564;2022-08-25T10:03:04;101477.06;;;28.34;42.57
57990;BME280;58373;51.824;5.564;2022-08-25T10:05:29;101462.19;;;28.38;42.16
57990;BME280;58373;51.824;5.564;2022-08-25T10:08:02;101468.00;;;28.35;40.63
57990;BME280;58373;51.824;5.564;2022-08-25T10:10:32;101463.63;;;28.52;40.80
57990;BME280;58373;51.824;5.564;2022-08-25T10:12:58;101462.38;;;28.67;40.71
57990;BME280;58373;51.824;5.564;2022-08-25T10:17:50;101456.34;;;28.71;39.29
57990;BME280;58373;51.824;5.564;2022-08-25T10:20:22;101448.34;;;28.83;39.91
57990;BME280;58373;51.824;5.564;2022-08-25T10:22:49;101440.09;;;28.84;39.53
57990;BME280;58373;51.824;5.564;2022-08-25T10:25:27;101447.94;;;29.09;39.62
57990;BME280;58373;51.824;5.564;2022-08-25T10:28:31;101434.22;;;29.18;39.77
57990;BME280;58373;51.824;5.564;2022-08-25T10:36:21;101430.44;;;29.66;38.01
57990;BME280;58373;51.824;5.564;2022-08-25T10:38:58;101425.34;;;29.52;37.50
57990;BME280;58373;51.824;5.564;2022-08-25T10:41:45;101414.88;;;29.62;37.76
57990;BME280;58373;51.824;5.564;2022-08-25T10:44:33;101414.13;;;29.79;37.28
57990;BME280;58373;51.824;5.564;2022-08-25T10:47:41;101406.53;;;30.04;34.38
57990;BME280;58373;51.824;5.564;2022-08-25T10:50:32;101405.00;;;30.20;34.98
57990;BME280;58373;51.824;5.564;2022-08-25T10:55:48;101396.09;;;30.48;33.59
57990;BME280;58373;51.824;5.564;2022-08-25T10:59:00;101399.00;;;30.63;32.14
57990;BME280;58373;51.824;5.564;2022-08-25T11:03:51;101396.75;;;30.72;30.53
57990;BME280;58373;51.824;5.564;2022-08-25T11:06:26;101393.06;;;30.61;32.76
57990;BME280;58373;51.824;5.564;2022-08-25T11:08:56;101391.88;;;30.69;31.46
57990;BME280;58373;51.824;5.564;2022-08-25T11:11:36;101401.91;;;30.79;32.20
57990;BME280;58373;51.824;5.564;2022-08-25T11:14:06;101390.28;;;30.90;31.71
57990;BME280;58373;51.824;5.564;2022-08-25T11:17:09;101387.50;;;30.80;32.65
57990;BME280;58373;51.824;5.564;2022-08-25T11:19:43;101379.72;;;31.00;32.09
57990;BME280;58373;51.824;5.564;2022-08-25T11:24:59;101383.22;;;31.01;32.87
57990;BME280;58373;51.824;5.564;2022-08-25T11:27:53;101382.72;;;31.04;32.67
57990;BME280;58373;51.824;5.564;2022-08-25T11:30:20;101370.03;;;31.16;31.24
57990;BME280;58373;51.824;5.564;2022-08-25T11:32:48;101364.66;;;31.16;31.34
57990;BME280;58373;51.824;5.564;2022-08-25T11:38:04;101363.84;;;31.15;30.95
57990;BME280;58373;51.824;5.564;2022-08-25T11:51:31;101342.94;;;31.61;29.78
57990;BME280;58373;51.824;5.564;2022-08-25T11:57:08;101341.78;;;31.52;29.59
57990;BME280;58373;51.824;5.564;2022-08-25T12:02:43;101350.28;;;31.44;30.32
57990;BME280;58373;51.824;5.564;2022-08-25T12:13:42;101346.72;;;31.65;29.63
57990;BME280;58373;51.824;5.564;2022-08-25T12:16:31;101343.22;;;31.87;29.30
57990;BME280;58373;51.824;5.564;2022-08-25T12:19:27;101346.63;;;32.09;29.90
57990;BME280;58373;51.824;5.564;2022-08-25T12:21:56;101344.69;;;32.05;27.86
57990;BME280;58373;51.824;5.564;2022-08-25T12:27:44;101338.75;;;32.30;28.53
57990;BME280;58373;51.824;5.564;2022-08-25T12:30:20;101335.63;;;32.43;28.40
57990;BME280;58373;51.824;5.564;2022-08-25T12:35:56;101338.06;;;32.44;28.34
57990;BME280;58373;51.824;5.564;2022-08-25T12:38:33;101330.34;;;32.53;28.12
57990;BME280;58373;51.824;5.564;2022-08-25T12:41:12;101330.56;;;32.46;28.03
57990;BME280;58373;51.824;5.564;2022-08-25T12:43:47;101325.59;;;32.70;28.06
57990;BME280;58373;51.824;5.564;2022-08-25T12:59:53;101311.09;;;32.71;28.25
57990;BME280;58373;51.824;5.564;2022-08-25T13:02:47;101319.19;;;32.76;28.70
57990;BME280;58373;51.824;5.564;2022-08-25T13:10:47;101307.88;;;32.69;29.32
57990;BME280;58373;51.824;5.564;2022-08-25T13:13:48;101319.09;;;32.61;28.64
57990;BME280;58373;51.824;5.564;2022-08-25T13:16:21;101302.72;;;32.68;28.89
57990;BME280;58373;51.824;5.564;2022-08-25T13:18:47;101304.09;;;32.70;29.12
57990;BME280;58373;51.824;5.564;2022-08-25T13:21:19;101304.03;;;32.60;28.56
57990;BME280;58373;51.824;5.564;2022-08-25T13:23:55;101297.22;;;32.90;28.64
57990;BME280;58373;51.824;5.564;2022-08-25T13:26:26;101300.91;;;32.78;26.88
57990;BME280;58373;51.824;5.564;2022-08-25T13:29:13;101289.66;;;32.82;28.02
57990;BME280;58373;51.824;5.564;2022-08-25T13:32:10;101295.03;;;32.82;28.67
57990;BME280;58373;51.824;5.564;2022-08-25T13:34:39;101285.31;;;32.75;28.78
57990;BME280;58373;51.824;5.564;2022-08-25T13:37:08;101277.75;;;32.67;28.43
57990;BME280;58373;51.824;5.564;2022-08-25T13:40:19;101289.03;;;32.64;29.47
57990;BME280;58373;51.824;5.564;2022-08-25T13:42:47;101285.69;;;32.42;28.75
57990;BME280;58373;51.824;5.564;2022-08-25T13:45:21;101281.50;;;32.19;27.91
57990;BME280;58373;51.824;5.564;2022-08-25T13:47:48;101279.06;;;32.17;27.73
57990;BME280;58373;51.824;5.564;2022-08-25T13:50:20;101278.50;;;32.15;27.98
57990;BME280;58373;51.824;5.564;2022-08-25T13:52:49;101274.03;;;32.31;28.29
57990;BME280;58373;51.824;5.564;2022-08-25T13:55:25;101274.03;;;32.31;28.81
57990;BME280;58373;51.824;5.564;2022-08-25T13:57:53;101266.94;;;32.47;28.18
57990;BME280;58373;51.824;5.564;2022-08-25T14:00:31;101273.25;;;32.31;27.97
57990;BME280;58373;51.824;5.564;2022-08-25T14:02:58;101267.25;;;32.18;28.03
57990;BME280;58373;51.824;5.564;2022-08-25T14:07:58;101271.25;;;32.16;29.61
57990;BME280;58373;51.824;5.564;2022-08-25T14:13:27;101264.03;;;32.21;29.32
57990;BME280;58373;51.824;5.564;2022-08-25T14:15:53;101267.31;;;32.29;28.68
57990;BME280;58373;51.824;5.564;2022-08-25T14:18:23;101263.94;;;32.01;26.70
57990;BME280;58373;51.824;5.564;2022-08-25T14:20:53;101263.41;;;32.04;27.65
57990;BME280;58373;51.824;5.564;2022-08-25T14:23:23;101261.31;;;32.16;29.46
57990;BME280;58373;51.824;5.564;2022-08-25T14:25:53;101255.38;;;32.09;29.10
57990;BME280;58373;51.824;5.564;2022-08-25T14:28:22;101255.16;;;32.16;29.07
57990;BME280;58373;51.824;5.564;2022-08-25T14:31:00;101245.75;;;32.13;29.71
57990;BME280;58373;51.824;5.564;2022-08-25T14:33:32;101247.28;;;32.04;28.90
57990;BME280;58373;51.824;5.564;2022-08-25T14:35:59;101250.47;;;31.96;28.93
57990;BME280;58373;51.824;5.564;2022-08-25T14:38:27;101244.53;;;31.94;28.12
57990;BME280;58373;51.824;5.564;2022-08-25T14:40:53;101250.97;;;31.93;28.20
57990;BME280;58373;51.824;5.564;2022-08-25T14:43:18;101239.72;;;31.96;29.22
57990;BME280;58373;51.824;5.564;2022-08-25T14:45:45;101239.66;;;31.86;28.51
57990;BME280;58373;51.824;5.564;2022-08-25T14:48:26;101249.44;;;32.02;30.34
57990;BME280;58373;51.824;5.564;2022-08-25T14:50:54;101242.47;;;32.01;28.70
57990;BME280;58373;51.824;5.564;2022-08-25T14:53:20;101243.59;;;32.15;29.53